Time,TemperatureF,DewpointF,PressureIn,WindDirection,WindDirectionDegrees,WindSpeedMPH,WindSpeedGustMPH,Humidity,HourlyPrecipIn,Conditions,Clouds,dailyrainin,SoftwareType,DateUTC
2013-05-02 00:02:00,44.0,12.0,-100.00,North,-999,-999.0,-999.0,27,-99.99,,,-99.99,,2013-05-02 07:02:00,
2013-05-02 00:11:00,44.0,12.0,-100.00,North,-999,-999.0,-999.0,27,-99.99,,,-99.99,,2013-05-02 07:11:00,
2013-05-02 00:21:00,44.0,12.0,-100.00,North,-999,-999.0,-999.0,27,-99.99,,,-99.99,,2013-05-02 07:21:00,
2013-05-02 00:31:00,42.0,10.0,-100.00,North,-999,-999.0,-999.0,27,-99.99,,,-99.99,,2013-05-02 07:31:00,
2013-05-02 00:52:00,42.0,10.0,-100.00,North,-999,-999.0,-999.0,27,-99.99,,,-99.99,,2013-05-02 07:52:00,
2013-05-02 01:02:00,43.0,10.0,-100.00,North,-999,-999.0,-999.0,26,-99.99,,,-99.99,,2013-05-02 08:02:00,
2013-05-02 01:21:00,43.0,10.0,-100.00,North,-999,-999.0,-999.0,26,-99.99,,,-99.99,,2013-05-02 08:21:00,
2013-05-02 01:32:00,61.0,4.0,-100.00,North,-999,-999.0,-999.0,10,-99.99,,,0.00,,2013-05-02 08:32:00,
2013-05-02 01:42:00,61.0,4.0,-100.00,North,-999,-999.0,-999.0,10,-99.99,,,0.00,,2013-05-02 08:42:00,
2013-05-02 01:52:00,61.0,4.0,-100.00,North,-999,-999.0,-999.0,10,-99.99,,,0.00,,2013-05-02 08:52:00,
2013-05-02 02:02:00,53.0,7.0,-100.00,North,-999,-999.0,-999.0,15,-99.99,,,-99.99,,2013-05-02 09:02:00,
2013-05-02 02:11:00,53.0,7.0,-100.00,North,-999,-999.0,-999.0,15,-99.99,,,-99.99,,2013-05-02 09:11:00,
2013-05-02 02:21:00,53.0,7.0,-100.00,North,-999,-999.0,-999.0,15,-99.99,,,-99.99,,2013-05-02 09:21:00,
2013-05-02 02:32:00,47.0,6.0,-100.00,North,-999,-999.0,-999.0,18,-99.99,,,-99.99,,2013-05-02 09:32:00,
2013-05-02 02:42:00,47.0,6.0,-100.00,North,-999,-999.0,-999.0,18,-99.99,,,-99.99,,2013-05-02 09:42:00,
2013-05-02 02:52:00,47.0,6.0,-100.00,North,-999,-999.0,-999.0,18,-99.99,,,-99.99,,2013-05-02 09:52:00,
2013-05-02 03:02:00,48.0,4.0,-100.00,North,-999,-999.0,-999.0,16,-99.99,,,-99.99,,2013-05-02 10:02:00,
2013-05-02 03:12:00,48.0,4.0,-100.00,North,-999,-999.0,-999.0,16,-99.99,,,-99.99,,2013-05-02 10:12:00,
2013-05-02 03:22:00,48.0,4.0,-100.00,North,-999,-999.0,-999.0,16,-99.99,,,-99.99,,2013-05-02 10:22:00,
2013-05-02 03:32:00,48.0,4.0,-100.00,North,-999,-999.0,-999.0,16,-99.99,,,-99.99,,2013-05-02 10:32:00,
2013-05-02 03:42:00,48.0,4.0,-100.00,North,-999,-999.0,-999.0,16,-99.99,,,-99.99,,2013-05-02 10:42:00,
2013-05-02 03:52:00,48.0,4.0,-100.00,North,-999,-999.0,-999.0,16,-99.99,,,-99.99,,2013-05-02 10:52:00,
2013-05-02 04:02:00,45.0,6.0,-100.00,North,-999,-999.0,-999.0,20,-99.99,,,-99.99,,2013-05-02 11:02:00,
2013-05-02 04:11:00,45.0,6.0,-100.00,North,-999,-999.0,-999.0,20,-99.99,,,-99.99,,2013-05-02 11:11:00,
2013-05-02 04:21:00,45.0,6.0,-100.00,North,-999,-999.0,-999.0,20,-99.99,,,-99.99,,2013-05-02 11:21:00,
2013-05-02 04:32:00,61.0,-4.0,-100.00,North,-999,-999.0,-999.0,7,-99.99,,,-99.99,,2013-05-02 11:32:00,
2013-05-02 04:42:00,61.0,-4.0,-100.00,North,-999,-999.0,-999.0,7,-99.99,,,-99.99,,2013-05-02 11:42:00,
2013-05-02 04:52:00,61.0,-4.0,-100.00,North,-999,-999.0,-999.0,7,-99.99,,,-99.99,,2013-05-02 11:52:00,
2013-05-02 05:01:00,59.0,-2.0,-100.00,North,-999,-999.0,-999.0,8,-99.99,,,-99.99,,2013-05-02 12:01:00,
2013-05-02 05:11:00,59.0,-2.0,-100.00,North,-999,-999.0,-999.0,8,-99.99,,,-99.99,,2013-05-02 12:11:00,
2013-05-02 05:21:00,59.0,-2.0,-100.00,North,-999,-999.0,-999.0,8,-99.99,,,-99.99,,2013-05-02 12:21:00,
2013-05-02 05:32:00,63.0,-2.0,-100.00,North,-999,-999.0,-999.0,7,-99.99,,,-99.99,,2013-05-02 12:32:00,
2013-05-02 05:42:00,63.0,-2.0,-100.00,North,-999,-999.0,-999.0,7,-99.99,,,-99.99,,2013-05-02 12:42:00,
2013-05-02 05:52:00,63.0,-2.0,-100.00,North,-999,-999.0,-999.0,7,-99.99,,,-99.99,,2013-05-02 12:52:00,
2013-05-02 06:01:00,62.0,-3.0,-100.00,North,-999,-999.0,-999.0,7,-99.99,,,-99.99,,2013-05-02 13:01:00,
2013-05-02 06:11:00,62.0,-3.0,-100.00,North,-999,-999.0,-999.0,7,-99.99,,,-99.99,,2013-05-02 13:11:00,
2013-05-02 06:21:00,62.0,-3.0,-100.00,North,-999,-999.0,-999.0,7,-99.99,,,-99.99,,2013-05-02 13:21:00,
2013-05-02 06:31:00,62.0,0.0,-100.00,North,-999,-999.0,-999.0,8,-99.99,,,-99.99,,2013-05-02 13:31:00,
2013-05-02 06:42:00,62.0,0.0,-100.00,North,-999,-999.0,-999.0,8,-99.99,,,-99.99,,2013-05-02 13:42:00,
2013-05-02 06:52:00,62.0,0.0,-100.00,North,-999,-999.0,-999.0,8,-99.99,,,-99.99,,2013-05-02 13:52:00,
2013-05-02 07:02:00,62.0,0.0,-100.00,North,-999,-999.0,-999.0,8,-99.99,,,-99.99,,2013-05-02 14:02:00,
2013-05-02 07:11:00,62.0,0.0,-100.00,North,-999,-999.0,-999.0,8,-99.99,,,-99.99,,2013-05-02 14:11:00,
2013-05-02 07:21:00,62.0,0.0,-100.00,North,-999,-999.0,-999.0,8,-99.99,,,-99.99,,2013-05-02 14:21:00,
2013-05-02 07:31:00,62.0,0.0,-100.00,North,-999,-999.0,-999.0,8,-99.99,,,-99.99,,2013-05-02 14:31:00,
2013-05-02 08:33:00,67.0,1.0,-100.00,North,-999,-999.0,-999.0,7,-99.99,,,-99.99,,2013-05-02 15:33:00,
2013-05-02 08:43:00,67.0,1.0,-100.00,North,-999,-999.0,-999.0,7,-99.99,,,-99.99,,2013-05-02 15:43:00,
2013-05-02 09:02:00,67.0,1.0,-100.00,North,-999,-999.0,-999.0,7,-99.99,,,-99.99,,2013-05-02 16:02:00,
2013-05-02 09:32:00,70.0,3.0,-100.00,North,-999,-999.0,-999.0,7,-99.99,,,-99.99,,2013-05-02 16:32:00,
2013-05-02 09:43:00,70.0,3.0,-100.00,North,-999,-999.0,-999.0,7,-99.99,,,-99.99,,2013-05-02 16:43:00,
2013-05-02 09:52:00,70.0,3.0,-100.00,North,-999,-999.0,-999.0,7,-99.99,,,-99.99,,2013-05-02 16:52:00,
2013-05-02 10:02:00,70.0,3.0,-100.00,North,-999,-999.0,-999.0,7,-99.99,,,-99.99,,2013-05-02 17:02:00,
2013-05-02 10:32:00,73.0,5.0,-100.00,North,-999,-999.0,-999.0,7,-99.99,,,-99.99,,2013-05-02 17:32:00,
2013-05-02 10:42:00,73.0,5.0,-100.00,North,-999,-999.0,-999.0,7,-99.99,,,-99.99,,2013-05-02 17:42:00,
2013-05-02 10:52:00,73.0,5.0,-100.00,North,-999,-999.0,-999.0,7,-99.99,,,-99.99,,2013-05-02 17:52:00,
2013-05-02 11:01:00,73.0,5.0,-100.00,North,-999,-999.0,-999.0,7,-99.99,,,-99.99,,2013-05-02 18:01:00,
2013-05-02 11:32:00,74.0,6.0,-100.00,North,-999,-999.0,-999.0,7,-99.99,,,-99.99,,2013-05-02 18:32:00,
2013-05-02 11:42:00,74.0,6.0,-100.00,North,-999,-999.0,-999.0,7,-99.99,,,-99.99,,2013-05-02 18:42:00,
2013-05-02 11:52:00,74.0,6.0,-100.00,North,-999,-999.0,-999.0,7,-99.99,,,-99.99,,2013-05-02 18:52:00,
2013-05-02 12:01:00,77.0,8.0,-100.00,North,-999,-999.0,-999.0,7,-99.99,,,-99.99,,2013-05-02 19:01:00,
2013-05-02 12:11:00,77.0,8.0,-100.00,North,-999,-999.0,-999.0,7,-99.99,,,-99.99,,2013-05-02 19:11:00,
2013-05-02 12:21:00,77.0,8.0,-100.00,North,-999,-999.0,-999.0,7,-99.99,,,-99.99,,2013-05-02 19:21:00,
2013-05-02 12:31:00,76.0,7.0,-100.00,North,-999,-999.0,-999.0,7,-99.99,,,-99.99,,2013-05-02 19:31:00,
2013-05-02 12:42:00,76.0,7.0,-100.00,North,-999,-999.0,-999.0,7,-99.99,,,-99.99,,2013-05-02 19:42:00,
2013-05-02 12:52:00,76.0,7.0,-100.00,North,-999,-999.0,-999.0,7,-99.99,,,-99.99,,2013-05-02 19:52:00,
2013-05-02 13:01:00,77.0,5.0,-100.00,North,-999,-999.0,-999.0,6,-99.99,,,-99.99,,2013-05-02 20:01:00,
2013-05-02 13:11:00,77.0,5.0,-100.00,North,-999,-999.0,-999.0,6,-99.99,,,-99.99,,2013-05-02 20:11:00,
2013-05-02 13:22:00,77.0,5.0,-100.00,North,-999,-999.0,-999.0,6,-99.99,,,-99.99,,2013-05-02 20:22:00,
2013-05-02 13:32:00,79.0,6.0,-100.00,North,-999,-999.0,-999.0,6,-99.99,,,-99.99,,2013-05-02 20:32:00,
2013-05-02 13:33:00,79.0,10.0,-100.00,North,-999,-999.0,-999.0,7,-99.99,,,-99.99,,2013-05-02 20:33:00,
2013-05-02 13:42:00,79.0,6.0,-100.00,North,-999,-999.0,-999.0,6,-99.99,,,-99.99,,2013-05-02 20:42:00,
2013-05-02 13:52:00,79.0,6.0,-100.00,North,-999,-999.0,-999.0,6,-99.99,,,-99.99,,2013-05-02 20:52:00,
2013-05-02 14:01:00,79.0,10.0,-100.00,North,-999,-999.0,-999.0,7,-99.99,,,-99.99,,2013-05-02 21:01:00,
2013-05-02 14:11:00,79.0,10.0,-100.00,North,-999,-999.0,-999.0,7,-99.99,,,-99.99,,2013-05-02 21:11:00,
2013-05-02 14:21:00,79.0,10.0,-100.00,North,-999,-999.0,-999.0,7,-99.99,,,-99.99,,2013-05-02 21:21:00,
2013-05-02 15:02:00,83.0,5.0,-100.00,North,-999,-999.0,-999.0,5,-99.99,,,-99.99,,2013-05-02 22:02:00,
2013-05-02 15:12:00,83.0,5.0,-100.00,North,-999,-999.0,-999.0,5,-99.99,,,-99.99,,2013-05-02 22:12:00,
2013-05-02 15:22:00,83.0,5.0,-100.00,North,-999,-999.0,-999.0,5,-99.99,,,-99.99,,2013-05-02 22:22:00,
2013-05-02 15:32:00,82.0,4.0,-100.00,North,-999,-999.0,-999.0,5,-99.99,,,-99.99,,2013-05-02 22:32:00,
2013-05-02 15:42:00,82.0,4.0,-100.00,North,-999,-999.0,-999.0,5,-99.99,,,-99.99,,2013-05-02 22:42:00,
2013-05-02 15:52:00,82.0,4.0,-100.00,North,-999,-999.0,-999.0,5,-99.99,,,-99.99,,2013-05-02 22:52:00,
2013-05-02 16:02:00,84.0,6.0,-100.00,North,-999,-999.0,-999.0,5,-99.99,,,-99.99,,2013-05-02 23:02:00,
2013-05-02 16:11:00,84.0,6.0,-100.00,North,-999,-999.0,-999.0,5,-99.99,,,-99.99,,2013-05-02 23:11:00,
2013-05-02 16:22:00,84.0,6.0,-100.00,North,-999,-999.0,-999.0,5,-99.99,,,-99.99,,2013-05-02 23:22:00,
2013-05-02 16:31:00,82.0,4.0,-100.00,North,-999,-999.0,-999.0,5,-99.99,,,-99.99,,2013-05-02 23:31:00,
2013-05-02 16:42:00,82.0,4.0,-100.00,North,-999,-999.0,-999.0,5,-99.99,,,-99.99,,2013-05-02 23:42:00,
2013-05-02 16:52:00,82.0,4.0,-100.00,North,-999,-999.0,-999.0,5,-99.99,,,-99.99,,2013-05-02 23:52:00,
2013-05-02 17:01:00,83.0,5.0,-100.00,North,-999,-999.0,-999.0,5,-99.99,,,-99.99,,2013-05-03 00:01:00,
2013-05-02 17:11:00,83.0,5.0,-100.00,North,-999,-999.0,-999.0,5,-99.99,,,-99.99,,2013-05-03 00:11:00,
2013-05-02 17:21:00,83.0,5.0,-100.00,North,-999,-999.0,-999.0,5,-99.99,,,-99.99,,2013-05-03 00:21:00,
2013-05-02 17:31:00,83.0,5.0,-100.00,North,-999,-999.0,-999.0,5,-99.99,,,-99.99,,2013-05-03 00:31:00,
2013-05-02 18:01:00,80.0,-2.0,-100.00,North,-999,-999.0,-999.0,4,-99.99,,,-99.99,,2013-05-03 01:01:00,
2013-05-02 18:11:00,80.0,-2.0,-100.00,North,-999,-999.0,-999.0,4,-99.99,,,-99.99,,2013-05-03 01:11:00,
2013-05-02 18:21:00,80.0,-2.0,-100.00,North,-999,-999.0,-999.0,4,-99.99,,,-99.99,,2013-05-03 01:21:00,
2013-05-02 18:31:00,79.0,-2.0,-100.00,North,-999,-999.0,-999.0,4,-99.99,,,-99.99,,2013-05-03 01:31:00,
2013-05-02 18:42:00,79.0,-2.0,-100.00,North,-999,-999.0,-999.0,4,-99.99,,,-99.99,,2013-05-03 01:42:00,
2013-05-02 18:52:00,79.0,-2.0,-100.00,North,-999,-999.0,-999.0,4,-99.99,,,-99.99,,2013-05-03 01:52:00,
2013-05-02 19:01:00,78.0,-3.0,-100.00,North,-999,-999.0,-999.0,4,-99.99,,,-99.99,,2013-05-03 02:01:00,
2013-05-02 19:11:00,78.0,-3.0,-100.00,North,-999,-999.0,-999.0,4,-99.99,,,-99.99,,2013-05-03 02:11:00,
2013-05-02 19:21:00,78.0,-3.0,-100.00,North,-999,-999.0,-999.0,4,-99.99,,,-99.99,,2013-05-03 02:21:00,
2013-05-02 19:31:00,76.0,-4.0,-100.00,North,-999,-999.0,-999.0,4,-99.99,,,-99.99,,2013-05-03 02:31:00,
2013-05-02 19:42:00,76.0,-4.0,-100.00,North,-999,-999.0,-999.0,4,-99.99,,,-99.99,,2013-05-03 02:42:00,
2013-05-02 19:52:00,76.0,-4.0,-100.00,North,-999,-999.0,-999.0,4,-99.99,,,-99.99,,2013-05-03 02:52:00,
2013-05-02 20:01:00,76.0,-4.0,-100.00,North,-999,-999.0,-999.0,4,-99.99,,,-99.99,,2013-05-03 03:01:00,
2013-05-02 20:33:00,72.0,-7.0,-100.00,North,-999,-999.0,-999.0,4,-99.99,,,-99.99,,2013-05-03 03:33:00,
2013-05-02 20:43:00,72.0,-7.0,-100.00,North,-999,-999.0,-999.0,4,-99.99,,,-99.99,,2013-05-03 03:43:00,
2013-05-02 20:53:00,72.0,-7.0,-100.00,North,-999,-999.0,-999.0,4,-99.99,,,-99.99,,2013-05-03 03:53:00,
2013-05-02 21:02:00,69.0,-5.0,-100.00,North,-999,-999.0,-999.0,5,-99.99,,,-99.99,,2013-05-03 04:02:00,
2013-05-02 21:12:00,69.0,-5.0,-100.00,North,-999,-999.0,-999.0,5,-99.99,,,-99.99,,2013-05-03 04:12:00,
2013-05-02 21:22:00,69.0,-5.0,-100.00,North,-999,-999.0,-999.0,5,-99.99,,,-99.99,,2013-05-03 04:22:00,
2013-05-02 21:32:00,67.0,-2.0,-100.00,North,-999,-999.0,-999.0,6,-99.99,,,-99.99,,2013-05-03 04:32:00,
2013-05-02 21:43:00,67.0,-2.0,-100.00,North,-999,-999.0,-999.0,6,-99.99,,,-99.99,,2013-05-03 04:43:00,
2013-05-02 21:53:00,57.0,-1.0,-100.00,North,-999,-999.0,-999.0,9,-99.99,,,-99.99,,2013-05-03 04:53:00,
2013-05-02 22:02:00,57.0,-1.0,-100.00,North,-999,-999.0,-999.0,9,-99.99,,,-99.99,,2013-05-03 05:02:00,
2013-05-02 22:32:00,54.0,1.0,-100.00,North,-999,-999.0,-999.0,11,-99.99,,,-99.99,,2013-05-03 05:32:00,
2013-05-02 23:02:00,49.0,-99.9,-100.00,North,-999,-999.0,-999.0,-999,-99.99,,,-99.99,,2013-05-03 06:02:00,
2013-05-02 23:12:00,49.0,-99.9,-100.00,North,-999,-999.0,-999.0,-999,-99.99,,,-99.99,,2013-05-03 06:12:00,
2013-05-02 23:22:00,49.0,-99.9,-100.00,North,-999,-999.0,-999.0,-999,-99.99,,,-99.99,,2013-05-03 06:22:00,
2013-05-02 23:31:00,46.0,7.0,-100.00,North,-999,-999.0,-999.0,20,-99.99,,,-99.99,,2013-05-03 06:31:00,
2013-05-02 23:42:00,46.0,7.0,-100.00,North,-999,-999.0,-999.0,20,-99.99,,,-99.99,,2013-05-03 06:42:00,
2013-05-02 23:52:00,44.0,4.0,-100.00,North,-999,-999.0,-999.0,19,-99.99,,,-99.99,,2013-05-03 06:52:00,